createdAt,value
2023-09-09T00:00:53.295Z,24.54
2023-09-09T00:03:21.411Z,24.52
2023-09-09T00:05:49.337Z,24.52
2023-09-09T00:08:20.521Z,24.48
2023-09-09T00:10:48.274Z,24.52
2023-09-09T00:13:15.774Z,24.52
2023-09-09T00:15:42.738Z,24.54
2023-09-09T00:18:09.575Z,24.50
2023-09-09T00:20:40.219Z,24.45
2023-09-09T00:23:10.530Z,24.44
2023-09-09T00:25:41.453Z,24.39
2023-09-09T00:28:09.601Z,24.35
2023-09-09T00:30:36.625Z,24.33
2023-09-09T00:33:04.048Z,24.30
2023-09-09T00:35:34.024Z,24.29
2023-09-09T00:38:02.001Z,24.26
2023-09-09T00:40:28.864Z,24.27
2023-09-09T00:42:55.655Z,24.35
2023-09-09T00:45:22.354Z,24.33
2023-09-09T00:47:49.671Z,24.30
2023-09-09T00:50:16.575Z,24.30
2023-09-09T00:52:43.988Z,24.30
2023-09-09T00:55:15.077Z,24.25
2023-09-09T00:57:41.758Z,24.23
2023-09-09T01:00:12.225Z,24.22
2023-09-09T01:02:41.535Z,24.18
2023-09-09T01:05:10.236Z,24.13
2023-09-09T01:07:50.247Z,24.08
2023-09-09T01:10:18.507Z,24.02
2023-09-09T01:12:45.952Z,23.99
2023-09-09T01:15:14.289Z,23.98
2023-09-09T01:17:41.438Z,23.96
2023-09-09T01:20:20.896Z,23.95
2023-09-09T01:22:51.512Z,23.93
2023-09-09T01:25:18.279Z,23.92
2023-09-09T01:27:45.193Z,23.88
2023-09-09T01:30:13.111Z,23.85
2023-09-09T01:32:40.506Z,23.84
2023-09-09T01:35:08.282Z,23.85
2023-09-09T01:37:35.561Z,23.82
2023-09-09T01:40:11.387Z,23.84
2023-09-09T01:42:39.659Z,23.81
2023-09-09T01:45:06.967Z,23.80
2023-09-09T01:47:34.180Z,23.76
2023-09-09T01:50:00.917Z,23.71
2023-09-09T01:52:27.703Z,23.68
2023-09-09T01:54:55.051Z,23.67
2023-09-09T01:57:23.236Z,23.65
2023-09-09T01:59:49.874Z,23.63
2023-09-09T02:02:23.866Z,23.64
2023-09-09T02:04:50.722Z,23.62
2023-09-09T02:07:17.463Z,23.59
2023-09-09T02:09:44.234Z,23.56
2023-09-09T02:12:11.468Z,23.54
2023-09-09T02:14:38.350Z,23.51
2023-09-09T02:17:05.325Z,23.51
2023-09-09T02:19:33.346Z,23.51
2023-09-09T02:22:00.108Z,23.50
2023-09-09T02:24:26.881Z,23.44
2023-09-09T02:26:53.617Z,23.41
2023-09-09T02:29:20.340Z,23.40
2023-09-09T02:31:47.087Z,23.36
2023-09-09T02:34:14.225Z,23.37
2023-09-09T02:36:45.772Z,23.38
2023-09-09T02:39:12.642Z,23.38
2023-09-09T02:41:39.490Z,23.36
2023-09-09T02:44:06.523Z,23.32
2023-09-09T02:46:33.358Z,23.27
2023-09-09T02:49:00.194Z,23.28
2023-09-09T02:51:26.989Z,23.26
2023-09-09T02:53:53.965Z,23.25
2023-09-09T02:56:20.870Z,23.23
2023-09-09T02:58:47.508Z,23.23
2023-09-09T03:01:14.474Z,23.20
2023-09-09T03:03:41.695Z,23.19
2023-09-09T03:06:11.730Z,23.15
2023-09-09T03:08:38.490Z,23.13
2023-09-09T03:11:05.217Z,23.13
2023-09-09T03:13:32.169Z,23.13
2023-09-09T03:15:59.095Z,23.11
2023-09-09T03:18:25.939Z,23.11
2023-09-09T03:20:52.864Z,23.09
2023-09-09T03:23:20.000Z,23.07
2023-09-09T03:25:46.881Z,23.07
2023-09-09T03:28:13.564Z,23.06
2023-09-09T03:30:55.083Z,23.05
2023-09-09T03:33:22.386Z,23.01
2023-09-09T03:35:49.453Z,23.00
2023-09-09T03:38:16.632Z,23.00
2023-09-09T03:40:43.849Z,23.02
2023-09-09T03:43:10.983Z,23.05
2023-09-09T03:45:38.211Z,23.09
2023-09-09T03:48:05.769Z,23.13
2023-09-09T03:50:33.239Z,23.08
2023-09-09T03:53:00.718Z,23.10
2023-09-09T03:55:27.384Z,23.07
2023-09-09T03:57:54.529Z,23.00
2023-09-09T04:00:21.329Z,22.94
2023-09-09T04:02:48.242Z,22.90
2023-09-09T04:05:15.123Z,22.84
2023-09-09T04:07:45.281Z,22.82
2023-09-09T04:10:13.202Z,22.78
2023-09-09T04:12:40.344Z,22.74
2023-09-09T04:15:08.096Z,22.74
2023-09-09T04:17:35.131Z,22.69
2023-09-09T04:20:02.532Z,22.65
2023-09-09T04:22:29.316Z,22.63
2023-09-09T04:24:56.053Z,22.65
2023-09-09T04:27:23.401Z,22.67
2023-09-09T04:29:50.285Z,22.67
2023-09-09T04:32:17.103Z,22.65
2023-09-09T04:34:43.955Z,22.67
2023-09-09T04:37:10.780Z,22.63
2023-09-09T04:39:37.780Z,22.60
2023-09-09T04:42:04.693Z,22.64
2023-09-09T04:44:31.385Z,22.67
2023-09-09T04:46:58.236Z,22.65
2023-09-09T04:49:25.122Z,22.65
2023-09-09T04:51:51.817Z,22.62
2023-09-09T04:54:19.725Z,22.61
2023-09-09T04:56:48.235Z,22.61
2023-09-09T04:59:15.110Z,22.63
2023-09-09T05:01:43.432Z,22.65
2023-09-09T05:04:10.477Z,22.62
2023-09-09T05:06:37.372Z,22.65
2023-09-09T05:09:04.041Z,22.67
2023-09-09T05:11:31.474Z,22.69
2023-09-09T05:13:58.160Z,22.71
2023-09-09T05:16:25.359Z,22.73
2023-09-09T05:18:52.204Z,22.75
2023-09-09T05:21:19.171Z,22.78
2023-09-09T05:23:46.152Z,22.75
2023-09-09T05:26:13.019Z,22.76
2023-09-09T05:28:39.781Z,22.75
2023-09-09T05:31:07.629Z,22.73
2023-09-09T05:33:34.831Z,22.73
2023-09-09T05:36:01.932Z,22.73
2023-09-09T05:38:30.698Z,22.77
2023-09-09T05:40:57.537Z,22.80
2023-09-09T05:43:24.284Z,22.81
2023-09-09T05:45:51.057Z,22.85
2023-09-09T05:48:17.755Z,22.86
2023-09-09T05:50:44.679Z,22.87
2023-09-09T05:53:11.728Z,22.90
2023-09-09T05:55:38.462Z,22.92
2023-09-09T05:58:05.671Z,22.96
2023-09-09T06:00:35.514Z,22.95
2023-09-09T06:03:02.256Z,22.95
2023-09-09T06:05:29.074Z,22.93
2023-09-09T06:07:57.729Z,22.89
2023-09-09T06:10:24.491Z,22.87
2023-09-09T06:12:51.372Z,22.88
2023-09-09T06:15:18.086Z,22.92
2023-09-09T06:17:46.545Z,22.93
2023-09-09T06:20:15.605Z,22.96
2023-09-09T06:22:42.277Z,22.95
2023-09-09T06:25:09.774Z,22.96
2023-09-09T06:27:36.608Z,22.99
2023-09-09T06:30:03.460Z,23.05
2023-09-09T06:32:30.297Z,23.07
2023-09-09T06:34:57.297Z,23.10
2023-09-09T06:37:25.073Z,23.13
2023-09-09T06:39:51.843Z,23.16
2023-09-09T06:42:18.575Z,23.17
2023-09-09T06:44:45.280Z,23.20
2023-09-09T06:47:12.685Z,23.21
2023-09-09T06:49:39.703Z,23.23
2023-09-09T06:52:06.801Z,23.25
2023-09-09T06:54:33.610Z,23.28
2023-09-09T06:57:00.464Z,23.30
2023-09-09T06:59:27.209Z,23.35
2023-09-09T07:01:53.935Z,23.40
2023-09-09T07:04:20.742Z,23.46
2023-09-09T07:07:04.915Z,23.47
2023-09-09T07:09:34.784Z,23.43
2023-09-09T07:12:01.528Z,23.46
2023-09-09T07:14:28.552Z,23.52
2023-09-09T07:16:56.155Z,23.52
2023-09-09T07:19:23.041Z,23.57
2023-09-09T07:21:50.035Z,23.63
2023-09-09T07:24:16.751Z,23.69
2023-09-09T07:26:43.482Z,23.75
2023-09-09T07:29:10.792Z,23.78
2023-09-09T07:31:39.417Z,23.83
2023-09-09T07:34:07.532Z,23.89
2023-09-09T07:36:34.450Z,23.93
2023-09-09T07:39:01.285Z,23.99
2023-09-09T07:41:27.912Z,24.07
2023-09-09T07:43:54.672Z,24.10
2023-09-09T07:46:21.832Z,24.18
2023-09-09T07:48:48.551Z,24.25
2023-09-09T07:51:15.487Z,24.31
2023-09-09T07:53:42.183Z,24.37
2023-09-09T07:56:08.823Z,24.45
2023-09-09T07:58:35.652Z,24.54
2023-09-09T08:01:08.055Z,24.65
2023-09-09T08:03:35.612Z,24.77
2023-09-09T08:06:03.830Z,24.85
2023-09-09T08:08:30.849Z,24.95
2023-09-09T08:10:57.542Z,25.04
2023-09-09T08:13:25.502Z,25.16
2023-09-09T08:15:52.547Z,25.28
2023-09-09T08:18:19.399Z,25.40
2023-09-09T08:20:50.886Z,25.50
2023-09-09T08:23:18.102Z,25.60
2023-09-09T08:25:44.806Z,25.69
2023-09-09T08:28:12.249Z,25.76
2023-09-09T08:30:39.044Z,25.84
2023-09-09T08:33:05.859Z,25.92
2023-09-09T08:35:33.639Z,26.04
2023-09-09T08:38:01.676Z,26.13
2023-09-09T08:40:28.933Z,26.19
2023-09-09T08:43:06.684Z,26.26
2023-09-09T08:45:42.120Z,26.34
2023-09-09T08:48:11.949Z,26.43
2023-09-09T08:50:42.236Z,26.51
2023-09-09T08:53:14.172Z,26.64
2023-09-09T08:55:42.300Z,26.76
2023-09-09T08:58:10.038Z,26.83
2023-09-09T09:00:39.259Z,26.98
2023-09-09T09:03:06.510Z,27.01
2023-09-09T09:05:34.883Z,27.11
2023-09-09T09:08:02.271Z,27.21
2023-09-09T09:10:29.194Z,27.35
2023-09-09T09:12:56.187Z,27.48
2023-09-09T09:15:23.140Z,27.62
2023-09-09T09:17:50.457Z,27.80
2023-09-09T09:20:34.688Z,27.94
2023-09-09T09:23:06.465Z,28.02
2023-09-09T09:25:38.742Z,28.11
2023-09-09T09:28:05.926Z,28.25
2023-09-09T09:30:34.540Z,28.39
2023-09-09T09:33:01.334Z,28.51
2023-09-09T09:35:30.357Z,28.61
2023-09-09T09:37:58.143Z,28.61
2023-09-09T09:40:26.173Z,28.65
2023-09-09T09:42:54.127Z,28.73
2023-09-09T09:45:31.643Z,28.79
2023-09-09T09:47:59.877Z,28.83
2023-09-09T09:50:34.498Z,28.84
2023-09-09T09:53:03.734Z,28.90
2023-09-09T09:55:32.625Z,28.98
2023-09-09T09:58:01.672Z,29.10
2023-09-09T10:00:28.913Z,29.24
2023-09-09T10:02:59.818Z,29.38
2023-09-09T10:05:29.300Z,29.45
2023-09-09T10:08:21.772Z,29.59
2023-09-09T10:11:06.774Z,29.72
2023-09-09T10:13:44.441Z,29.79
2023-09-09T10:16:15.569Z,29.77
2023-09-09T10:18:43.349Z,29.79
2023-09-09T10:21:11.690Z,29.88
2023-09-09T10:23:39.604Z,30.02
2023-09-09T10:26:08.537Z,30.14
2023-09-09T10:28:36.736Z,30.23
2023-09-09T10:31:05.498Z,30.33
2023-09-09T10:33:32.917Z,30.46
2023-09-09T10:36:00.173Z,30.58
2023-09-09T10:38:27.716Z,30.69
2023-09-09T10:40:55.456Z,30.75
2023-09-09T10:43:22.312Z,30.86
2023-09-09T10:45:51.753Z,30.92
2023-09-09T10:48:22.688Z,30.92
2023-09-09T10:50:54.791Z,30.93
2023-09-09T10:53:21.677Z,30.91
2023-09-09T10:55:48.992Z,30.98
2023-09-09T10:58:19.770Z,31.17
2023-09-09T11:00:48.496Z,31.27
2023-09-09T11:03:28.816Z,31.38
2023-09-09T11:05:59.960Z,31.48
2023-09-09T11:08:34.230Z,31.65
2023-09-09T11:11:08.978Z,31.74
2023-09-09T11:13:43.270Z,31.87
2023-09-09T11:16:40.586Z,32.03
2023-09-09T11:19:08.736Z,32.12
2023-09-09T11:21:39.597Z,32.19
2023-09-09T11:24:07.946Z,32.24
2023-09-09T11:26:47.979Z,32.28
2023-09-09T11:29:30.223Z,32.30
2023-09-09T11:32:04.192Z,32.40
2023-09-09T11:34:34.313Z,32.45
2023-09-09T11:37:02.498Z,32.48
2023-09-09T11:39:29.485Z,32.56
2023-09-09T11:41:56.513Z,32.64
2023-09-09T11:44:23.184Z,32.77
2023-09-09T11:46:52.780Z,32.86
2023-09-09T11:49:20.219Z,32.98
2023-09-09T11:51:47.578Z,33.07
2023-09-09T11:54:20.902Z,33.13
2023-09-09T11:56:48.234Z,33.10
2023-09-09T11:59:14.975Z,33.13
2023-09-09T12:01:43.786Z,33.19
2023-09-09T12:04:12.471Z,33.27
2023-09-09T12:06:43.120Z,33.37
2023-09-09T12:09:10.808Z,33.49
2023-09-09T12:11:39.980Z,33.51
2023-09-09T12:14:06.933Z,33.56
2023-09-09T12:16:35.686Z,33.59
2023-09-09T12:19:02.488Z,33.61
2023-09-09T12:21:30.980Z,33.62
2023-09-09T12:23:59.646Z,33.49
2023-09-09T12:26:27.645Z,33.47
2023-09-09T12:29:11.694Z,33.54
2023-09-09T12:31:52.139Z,33.61
2023-09-09T12:34:20.955Z,33.68
2023-09-09T12:36:49.345Z,33.67
2023-09-09T12:39:31.923Z,33.49
2023-09-09T12:41:59.985Z,33.48
2023-09-09T12:44:26.967Z,33.35
2023-09-09T12:46:54.738Z,33.26
2023-09-09T12:49:21.557Z,33.38
2023-09-09T12:51:48.199Z,33.57
2023-09-09T12:54:14.987Z,33.69
2023-09-09T12:56:41.796Z,33.84
2023-09-09T12:59:08.463Z,33.96
2023-09-09T13:01:35.214Z,34.12
2023-09-09T13:04:02.081Z,34.23
2023-09-09T13:06:28.977Z,34.32
2023-09-09T13:08:55.762Z,34.41
2023-09-09T13:11:23.252Z,34.37
2023-09-09T13:13:50.050Z,34.34
2023-09-09T13:16:17.853Z,34.34
2023-09-09T13:18:44.920Z,34.38
2023-09-09T13:21:11.608Z,34.38
2023-09-09T13:23:38.867Z,34.25
2023-09-09T13:26:05.853Z,34.11
2023-09-09T13:28:33.644Z,34.08
2023-09-09T13:31:01.647Z,34.05
2023-09-09T13:33:28.392Z,33.91
2023-09-09T13:35:55.297Z,33.77
2023-09-09T13:38:21.990Z,33.78
2023-09-09T13:40:48.886Z,33.83
2023-09-09T13:43:16.332Z,33.88
2023-09-09T13:45:43.220Z,33.90
2023-09-09T13:48:10.110Z,33.87
2023-09-09T13:50:36.784Z,33.83
2023-09-09T13:53:04.445Z,33.78
2023-09-09T13:55:31.253Z,33.78
2023-09-09T13:57:58.196Z,33.81
2023-09-09T14:00:25.032Z,33.85
2023-09-09T14:02:51.920Z,33.89
2023-09-09T14:05:18.727Z,33.92
2023-09-09T14:07:46.392Z,33.86
2023-09-09T14:10:13.423Z,33.83
2023-09-09T14:12:42.811Z,33.77
2023-09-09T14:15:11.345Z,33.77
2023-09-09T14:17:37.982Z,33.78
2023-09-09T14:20:06.102Z,33.85
2023-09-09T14:22:32.899Z,33.88
2023-09-09T14:24:59.534Z,33.95
2023-09-09T14:27:26.374Z,34.01
2023-09-09T14:29:54.408Z,34.03
2023-09-09T14:32:21.131Z,34.04
2023-09-09T14:34:48.408Z,34.01
2023-09-09T14:37:15.158Z,34.00
2023-09-09T14:39:41.819Z,33.97
2023-09-09T14:42:08.797Z,33.95
2023-09-09T14:44:35.527Z,33.97
2023-09-09T14:47:02.264Z,33.93
2023-09-09T14:49:29.659Z,33.91
2023-09-09T14:51:56.916Z,33.87
2023-09-09T14:54:23.601Z,33.85
2023-09-09T14:56:50.334Z,33.83
2023-09-09T14:59:17.068Z,33.82
2023-09-09T15:01:44.044Z,33.80
2023-09-09T15:04:11.338Z,33.77
2023-09-09T15:06:38.077Z,33.73
2023-09-09T15:09:05.638Z,33.70
2023-09-09T15:11:32.361Z,33.70
2023-09-09T15:14:00.890Z,33.72
2023-09-09T15:16:46.682Z,33.68
2023-09-09T15:19:14.158Z,33.64
2023-09-09T15:21:41.024Z,33.61
2023-09-09T15:24:08.257Z,33.60
2023-09-09T15:26:35.247Z,33.57
2023-09-09T15:29:02.049Z,33.55
2023-09-09T15:31:29.145Z,33.55
2023-09-09T15:33:56.052Z,33.51
2023-09-09T15:36:23.003Z,33.45
2023-09-09T15:38:49.654Z,33.39
2023-09-09T15:41:16.650Z,33.35
2023-09-09T15:43:48.034Z,33.30
2023-09-09T15:46:15.117Z,33.21
2023-09-09T15:48:41.965Z,33.19
2023-09-09T15:51:08.847Z,33.17
2023-09-09T15:53:35.576Z,33.16
2023-09-09T15:56:04.212Z,33.11
2023-09-09T15:58:31.119Z,33.04
2023-09-09T16:01:01.008Z,32.99
2023-09-09T16:03:27.769Z,32.94
2023-09-09T16:06:01.191Z,32.89
2023-09-09T16:08:27.884Z,32.82
2023-09-09T16:10:57.534Z,32.78
2023-09-09T16:13:27.976Z,32.73
2023-09-09T16:16:02.755Z,32.70
2023-09-09T16:18:31.263Z,32.63
2023-09-09T16:20:59.146Z,32.58
2023-09-09T16:23:25.963Z,32.51
2023-09-09T16:25:54.264Z,32.48
2023-09-09T16:28:22.244Z,32.42
2023-09-09T16:30:49.278Z,32.38
2023-09-09T16:33:17.759Z,32.34
2023-09-09T16:35:45.531Z,32.27
2023-09-09T16:38:12.959Z,32.21
2023-09-09T16:40:40.577Z,32.17
2023-09-09T16:43:07.551Z,32.13
2023-09-09T16:45:34.637Z,32.05
2023-09-09T16:48:04.847Z,31.97
2023-09-09T16:50:31.818Z,31.92
2023-09-09T16:52:59.036Z,31.84
2023-09-09T16:55:26.901Z,31.74
2023-09-09T16:57:54.184Z,31.65
2023-09-09T17:00:21.455Z,31.57
2023-09-09T17:02:48.685Z,31.45
2023-09-09T17:05:15.535Z,31.35
2023-09-09T17:07:42.311Z,31.19
2023-09-09T17:10:10.547Z,31.04
2023-09-09T17:12:37.454Z,30.92
2023-09-09T17:15:04.440Z,30.80
2023-09-09T17:17:31.369Z,30.71
2023-09-09T17:19:58.359Z,30.64
2023-09-09T17:22:25.625Z,30.53
2023-09-09T17:24:52.312Z,30.43
2023-09-09T17:27:19.169Z,30.37
2023-09-09T17:29:45.940Z,30.32
2023-09-09T17:32:13.184Z,30.23
2023-09-09T17:34:42.043Z,30.17
2023-09-09T17:37:09.766Z,30.10
2023-09-09T17:39:36.733Z,29.99
2023-09-09T17:42:03.516Z,29.87
2023-09-09T17:44:30.234Z,29.77
2023-09-09T17:46:57.433Z,29.60
2023-09-09T17:49:27.028Z,29.43
2023-09-09T17:51:55.453Z,29.32
2023-09-09T17:54:26.759Z,29.21
2023-09-09T17:56:57.125Z,29.13
2023-09-09T17:59:24.107Z,29.05
2023-09-09T18:01:50.950Z,28.97
2023-09-09T18:04:19.565Z,28.87
2023-09-09T18:06:48.461Z,28.80
2023-09-09T18:09:15.496Z,28.77
2023-09-09T18:11:43.361Z,28.70
2023-09-09T18:14:10.103Z,28.62
2023-09-09T18:16:36.935Z,28.51
2023-09-09T18:19:03.930Z,28.43
2023-09-09T18:21:30.712Z,28.35
2023-09-09T18:23:57.781Z,28.29
2023-09-09T18:26:24.819Z,28.22
2023-09-09T18:28:52.031Z,28.16
2023-09-09T18:31:20.554Z,28.10
2023-09-09T18:33:47.979Z,28.03
2023-09-09T18:36:15.251Z,27.97
2023-09-09T18:38:43.549Z,27.89
2023-09-09T18:41:11.368Z,27.84
2023-09-09T18:43:38.307Z,27.82
2023-09-09T18:46:06.623Z,27.79
2023-09-09T18:48:33.974Z,27.74
2023-09-09T18:51:03.278Z,27.68
2023-09-09T18:53:32.035Z,27.63
2023-09-09T18:55:59.166Z,27.57
2023-09-09T18:58:26.094Z,27.55
2023-09-09T19:00:53.612Z,27.51
2023-09-09T19:03:23.129Z,27.46
2023-09-09T19:05:51.061Z,27.46
2023-09-09T19:08:18.393Z,27.42
2023-09-09T19:10:45.309Z,27.37
2023-09-09T19:13:15.245Z,27.35
2023-09-09T19:15:42.240Z,27.31
2023-09-09T19:18:09.387Z,27.26
2023-09-09T19:20:36.922Z,27.24
2023-09-09T19:23:04.641Z,27.20
2023-09-09T19:25:33.694Z,27.13
2023-09-09T19:28:02.058Z,27.07
2023-09-09T19:30:28.915Z,27.06
2023-09-09T19:32:55.891Z,27.03
2023-09-09T19:35:22.916Z,26.99
2023-09-09T19:37:51.781Z,26.98
2023-09-09T19:40:20.028Z,26.91
2023-09-09T19:42:46.728Z,26.83
2023-09-09T19:45:14.979Z,26.84
2023-09-09T19:47:41.937Z,26.86
2023-09-09T19:50:09.563Z,26.85
2023-09-09T19:52:36.583Z,26.81
2023-09-09T19:55:03.746Z,26.79
2023-09-09T19:57:30.522Z,26.76
2023-09-09T19:59:57.911Z,26.72
2023-09-09T20:02:24.723Z,26.69
2023-09-09T20:04:51.954Z,26.63
2023-09-09T20:07:18.755Z,26.58
2023-09-09T20:09:49.546Z,26.54
2023-09-09T20:12:16.693Z,26.49
2023-09-09T20:14:45.585Z,26.45
2023-09-09T20:17:14.701Z,26.37
2023-09-09T20:19:44.369Z,26.32
2023-09-09T20:22:11.500Z,26.28
2023-09-09T20:24:38.215Z,26.24
2023-09-09T20:27:05.351Z,26.25
2023-09-09T20:29:32.292Z,26.24
2023-09-09T20:31:59.451Z,26.24
2023-09-09T20:34:26.611Z,26.19
2023-09-09T20:36:53.632Z,26.16
2023-09-09T20:39:22.339Z,26.12
2023-09-09T20:41:50.902Z,26.09
2023-09-09T20:44:17.700Z,26.05
2023-09-09T20:46:47.847Z,26.05
2023-09-09T20:49:14.910Z,26.01
2023-09-09T20:51:41.846Z,25.98
2023-09-09T20:54:08.664Z,26.03
2023-09-09T20:56:35.452Z,26.12
2023-09-09T20:59:02.381Z,26.11
2023-09-09T21:01:34.682Z,26.07
2023-09-09T21:04:01.773Z,26.02
2023-09-09T21:06:28.671Z,25.97
2023-09-09T21:08:55.324Z,25.92
2023-09-09T21:11:22.436Z,25.83
2023-09-09T21:13:49.364Z,25.75
2023-09-09T21:16:16.355Z,25.74
2023-09-09T21:18:44.630Z,25.77
2023-09-09T21:21:11.477Z,25.80
2023-09-09T21:23:38.283Z,25.77
2023-09-09T21:26:05.496Z,25.72
2023-09-09T21:28:32.365Z,25.65
2023-09-09T21:30:59.397Z,25.58
2023-09-09T21:33:26.657Z,25.56
2023-09-09T21:35:56.042Z,25.56
2023-09-09T21:38:22.944Z,25.51
2023-09-09T21:40:49.821Z,25.51
2023-09-09T21:43:18.235Z,25.50
2023-09-09T21:45:45.110Z,25.48
2023-09-09T21:48:12.276Z,25.49
2023-09-09T21:50:39.281Z,25.51
2023-09-09T21:53:06.386Z,25.50
2023-09-09T21:55:33.164Z,25.51
2023-09-09T21:57:59.873Z,25.50
2023-09-09T22:00:27.708Z,25.47
2023-09-09T22:02:54.858Z,25.47
2023-09-09T22:05:21.571Z,25.52
2023-09-09T22:07:48.463Z,25.49
2023-09-09T22:10:15.564Z,25.45
2023-09-09T22:12:42.672Z,25.42
2023-09-09T22:15:11.518Z,25.41
2023-09-09T22:17:39.455Z,25.40
2023-09-09T22:20:12.784Z,25.37
2023-09-09T22:22:41.420Z,25.31
2023-09-09T22:25:15.758Z,25.26
2023-09-09T22:27:42.632Z,25.25
2023-09-09T22:30:10.359Z,25.23
2023-09-09T22:32:37.210Z,25.21
2023-09-09T22:35:07.215Z,25.17
2023-09-09T22:37:35.642Z,25.16
2023-09-09T22:40:02.769Z,25.15
2023-09-09T22:42:29.886Z,25.16
2023-09-09T22:44:56.930Z,25.16
2023-09-09T22:47:23.922Z,25.20
2023-09-09T22:49:52.441Z,25.21
2023-09-09T22:52:20.152Z,25.20
2023-09-09T22:54:46.910Z,25.18
2023-09-09T22:57:14.729Z,25.15
2023-09-09T22:59:41.506Z,25.08
2023-09-09T23:02:08.733Z,25.03
2023-09-09T23:04:35.765Z,24.97
2023-09-09T23:07:02.521Z,24.90
2023-09-09T23:09:29.415Z,24.85
2023-09-09T23:11:56.136Z,24.83
2023-09-09T23:14:24.076Z,24.80
2023-09-09T23:16:51.213Z,24.78
2023-09-09T23:19:18.262Z,24.85
2023-09-09T23:21:45.338Z,24.95
2023-09-09T23:24:12.273Z,25.06
2023-09-09T23:26:39.209Z,25.01
2023-09-09T23:29:06.636Z,24.97
2023-09-09T23:31:34.585Z,25.03
2023-09-09T23:34:03.181Z,25.05
2023-09-09T23:36:30.472Z,25.03
2023-09-09T23:39:05.122Z,25.02
2023-09-09T23:41:32.121Z,25.04
2023-09-09T23:43:59.005Z,24.99
2023-09-09T23:46:26.238Z,24.91
2023-09-09T23:48:53.558Z,24.87
2023-09-09T23:51:20.690Z,24.82
2023-09-09T23:53:47.984Z,24.77
2023-09-09T23:56:14.743Z,24.73
2023-09-09T23:58:41.594Z,24.67
